Terminal Aerodrome Forecast
Issued by NWS

Home | Current Version | Previous Version | Graphics & Text | Print | Product List | Glossary On
Versions: 1 2 3 4 5 6 7 8 9 10 11 12 13 14 15 16 17 18 19 20 21 22 23 24 25
000
FTUS43 KBIS 221731
TAFMOT
TAF
KMOT 221731Z 2218/2318 36015KT P6SM VCSH OVC010
      TEMPO 2218/2221 OVC008
     FM222200 34008KT P6SM BKN025
     FM230000 33006KT P6SM BKN015
     FM230800 35005KT 4SM BR OVC010
     FM231100 VRB05KT 3SM BR OVC007=

USA.gov is the U.S. government's official web portal to all federal, state and local government web resources and services.